Country
Station

 

Weather  for  Savannah, Savannah International Airport  -  United States    United States

  
23 °C (73 °F)
    
 
 

Current METAR for Savannah, Savannah International Airport is :

KSAV 181453Z 05012KT 10SM FEW055 FEW120 SCT200 23/10 A3031 RMK AO2 SLP264 T02280100 51018

 

This is a report for Savannah, Savannah International Airport - United States.
 
The report was made a moment ago, at 14:53 UTC .
The wind was blowing at a speed of 6.2 meters per second (13.8 miles per hour) from northeast (050°).
 
The temperature was 23 °C (73 °F), with a dew-point at 10 °C (50 °F).
The temperature felt like 25 °C (77 °F).
 
The atmospheric pressure was 1026 hPa (30.31 inHg).
The relative humidity was 43.7%.
 
There were a few clouds at a height of 1676 meters (5500 feet), a few clouds at a height of 3658 meters (12000 feet) and scattered clouds at a height of 6096 meters (20000 feet).
 
The overall visibility was 16.1 kilometers (10.0 miles).
 

 
 
 
 

Country :   A   B   C   D   E   F   G   H   I   J   K   L   M   N   O   P   Q   R   S   T   U   V   W   Y   Z

 

Site Info  |  Disclaimer  |  Credits  |  Privacy
Contact us  |  Add to favorites
© 2013-2018 METARs - All rights reserved